This is the latest recevied weather packets stored in our database for station/object DG6YGE-6. If no packets are shown the sender has not sent any weather packets the latest 1 day(s).
| Time | Temp. | Humidity | Pressure | Rain* | Wind** | Luminosity | Snow |
|---|---|---|---|---|---|---|---|
| 1777975152 | 10.56° C | 93% | 1009.1 hPa | 0 mm | 0.89 m/s, 132° | 198 W/m² | - |
| 1777974552 | 10° C | 93% | 1009 hPa | 0 mm | 1.34 m/s, 219° | 221 W/m² | - |
| 1777973951 | 10° C | 93% | 1009.1 hPa | 0 mm | 0.89 m/s, 248° | 146 W/m² | - |
| 1777973352 | 10° C | 93% | 1009.2 hPa | 0 mm | 0.89 m/s, 124° | 115 W/m² | - |
| 1777972751 | 10.56° C | 93% | 1009.3 hPa | 0 mm | 0.45 m/s, 188° | 112 W/m² | - |
| 1777972152 | 10° C | 93% | 1009.3 hPa | 0 mm | 0.45 m/s, 183° | 113 W/m² | - |
| 1777971552 | 10.56° C | 93% | 1009.1 hPa | 0 mm | 1.34 m/s, 231° | 166 W/m² | - |
| 1777970951 | 10.56° C | 93% | 1009.2 hPa | 0 mm | 0.89 m/s, 232° | 152 W/m² | - |
| 1777970351 | 10.56° C | 93% | 1009.2 hPa | 0 mm | 0.45 m/s, 118° | 165 W/m² | - |
| 1777969751 | 10° C | 93% | 1009.3 hPa | 0 mm | 0.45 m/s, 117° | 165 W/m² | - |
| 1777969151 | 10.56° C | 93% | 1009.2 hPa | 0 mm | 0.45 m/s, 213° | 125 W/m² | - |
| 1777968551 | 10.56° C | 93% | 1009.2 hPa | 0 mm | 0.89 m/s, 144° | 110 W/m² | - |
| 1777967951 | 10.56° C | 93% | 1009.2 hPa | 0 mm | 0.89 m/s, 118° | 107 W/m² | - |
| 1777967351 | 10.56° C | 93% | 1009.2 hPa | 0 mm | 0.89 m/s, 159° | 124 W/m² | - |
| 1777966751 | 10.56° C | 94% | 1009.2 hPa | 0 mm | 0.89 m/s, 314° | 151 W/m² | - |
| 1777966151 | 10.56° C | 93% | 1009.1 hPa | 0 mm | 0.45 m/s, 160° | 97 W/m² | - |
| 1777965551 | 10° C | 93% | 1009.2 hPa | 0 mm | 0 m/s | 55 W/m² | - |
| 1777964958 | 10° C | 93% | 1009.2 hPa | 0 mm | 0.45 m/s, 134° | 39 W/m² | - |
| 1777964351 | 10.56° C | 93% | 1009.2 hPa | 0 mm | 0.45 m/s, 193° | 49 W/m² | - |
| 1777963751 | 10.56° C | 93% | 1009.3 hPa | 0 mm | 0.45 m/s, 167° | 45 W/m² | - |
| 1777963157 | 10.56° C | 93% | 1009.3 hPa | 0 mm | 0.45 m/s, 271° | 66 W/m² | - |
| 1777962551 | 10.56° C | 94% | 1009.2 hPa | 0 mm | 0.45 m/s, 360° | 59 W/m² | - |
| 1777961951 | 10.56° C | 94% | 1009.2 hPa | 0 mm | 0.45 m/s, 242° | 68 W/m² | - |
| 1777961351 | 10.56° C | 94% | 1009.3 hPa | 0 mm | 0.45 m/s, 313° | 54 W/m² | - |
| 1777960751 | 10.56° C | 94% | 1009.4 hPa | 0 mm | 0.45 m/s, 260° | 28 W/m² | - |
* Rain latest hour (hover to see other rain measurements)
** Current wind speed in m/s (hover to see current wind gust speed)